Gatzke, MN (56724)

4:14 PM CDT on July 25, 2014 (GMT -0500)
RAWS AGASSIZ MN US (MAGZM5) Elev 919 ft | 48.31 °N, 95.87 °W | Change Station

Current weather conditions updated 54 minutes ago

Partly Cloudy
Partly Cloudy
79 °F
Feels Like 81 °F
N
6
Wind Variable Wind from West
Gusts 10.0 mph

Tomorrow is forecast to be nearly the same temperature as today. Showers late tomorrow night.

Today
High -- | Low -- °F
--% Chance of Precip.
Yesterday
High -- | Low -- °F
Precip. -- in
5:49 AM 9:09 PM
Waning Crescent, 1% visible
Pressure 29.74 in
Visibility 10.0 miles
Clouds Scattered Clouds 2400 ft
Mostly Cloudy 3300 ft
Mostly Cloudy 6000 ft
Heat Index 81 °F
Dew Point 68 °F
Humidity 69%
Rainfall 0.00 in
Snow Depth Not available.
UV 4 out of 12
Pollen 6.70 out of 12
Air Quality Not available.
Flu Activity Not available.
METAR KTVF 252055Z AUTO 25008KT 10SM SCT024 BKN033 BKN060 25/20 A2974 RMK AO1 57007

More Conditions Fewer Conditions

Pressure 29.74 in
Visibility 10.0 miles
Clouds Scattered Clouds 2400 ft
Mostly Cloudy 3300 ft
Mostly Cloudy 6000 ft
Heat Index 81 °F
Dew Point 68 °F
Humidity 69%
Rainfall 0.00 in
Snow Depth Not available.
UV 4 out of 12
Pollen 6.70 out of 12
Air Quality Not available.
Flu Activity Not available.
METAR KTVF 252055Z AUTO 25008KT 10SM SCT024 BKN033 BKN060 25/20 A2974 RMK AO1 57007

More Conditions Fewer Conditions

10-Day Weather Forecast

Almanac

Astronomy

Jul. 25, 2014 Rise Set
Actual Time 5:49 AM CDT 9:09 PM CDT
Civil Twilight 5:11 AM CDT 9:47 PM CDT
Nautical Twilight 4:20 AM CDT 10:37 PM CDT
Astronomical Twilight 3:14 AM CDT 11:42 PM CDT
Moon 4:52 AM CDT 8:02 PM CDT
Length of Visible Light 16h 36m
Length of Day
15h 20m
Tomorrow will be 2m 29s shorter.
Waning Crescent, 1% of the Moon is Illuminated
Today
Waning Crescent
Jul 26
New
Aug 3
First Quarter
Aug 10
Full
Aug 17
Last Quarter

Today's Extremes

State Highs State Lows

Community

WunderPhotos

Upload Photos

1,737,402 photos uploaded!

Nearby

Snow Depth

Station Depth Elevation
No new snow has been reported.

Earthquake Activity

City Distance Mag. Time & Date
No recent earthquake activity has been reported nearby.
Minimum magnitude displayed is 2.5.

Coastal Water Temperatures

Place Temperature
No Stations Reporting

Nearby Weather Stations

Station Location Temp. Heat Index Dew Point Humidity Wind Precip. Elev Updated Type
RAWS AGASSIZ MN, Gatzke, MN 79 °F 81 °F 68 °F 69% West  at  6 mph 0.00 in / hr 919 ft 3:20 PM CDT MADIS
RAWS AGASSIZ PORTABLE MN, Middle River, MN 82 °F 86 °F 70 °F 67% SW  at  4 mph 0.00 in / hr 1147 ft 3:32 PM CDT MADIS

Show More Stations Show Fewer Stations